createdAt,value
2024-05-09T00:01:11.665Z,13.40
2024-05-09T00:04:13.482Z,13.40
2024-05-09T00:07:15.279Z,13.30
2024-05-09T00:10:25.342Z,13.30
2024-05-09T00:13:34.839Z,13.30
2024-05-09T00:16:36.574Z,13.30
2024-05-09T00:19:38.413Z,13.30
2024-05-09T00:22:40.308Z,13.30
2024-05-09T00:25:45.499Z,13.30
2024-05-09T00:28:47.493Z,13.20
2024-05-09T00:31:49.441Z,13.20
2024-05-09T00:34:51.278Z,13.40
2024-05-09T00:37:53.142Z,13.50
2024-05-09T00:40:54.974Z,13.70
2024-05-09T00:43:56.840Z,13.70
2024-05-09T00:46:59.195Z,13.60
2024-05-09T00:50:04.183Z,13.60
2024-05-09T00:53:07.480Z,13.50
2024-05-09T00:56:12.712Z,13.40
2024-05-09T00:59:15.291Z,13.30
2024-05-09T01:02:17.503Z,13.30
2024-05-09T01:05:19.321Z,13.30
2024-05-09T01:08:21.454Z,13.20
2024-05-09T01:11:23.422Z,13.20
2024-05-09T01:14:25.431Z,13.10
2024-05-09T01:17:27.735Z,13.10
2024-05-09T01:20:39.584Z,13.10
2024-05-09T01:23:44.583Z,13.10
2024-05-09T01:26:46.640Z,13.00
2024-05-09T01:29:48.391Z,13.00
2024-05-09T01:32:50.295Z,12.90
2024-05-09T01:35:52.176Z,12.90
2024-05-09T01:38:53.944Z,12.90
2024-05-09T01:41:55.691Z,12.80
2024-05-09T01:44:57.473Z,12.80
2024-05-09T01:47:59.602Z,12.80
2024-05-09T01:51:01.759Z,12.80
2024-05-09T01:54:03.572Z,12.70
2024-05-09T01:57:05.522Z,12.70
2024-05-09T02:00:08.146Z,12.70
2024-05-09T02:03:15.932Z,12.60
2024-05-09T02:06:19.374Z,12.60
2024-05-09T02:09:21.148Z,12.60
2024-05-09T02:12:23.117Z,12.50
2024-05-09T02:15:24.895Z,12.50
2024-05-09T02:18:26.755Z,12.50
2024-05-09T02:21:28.553Z,12.40
2024-05-09T02:24:30.314Z,12.40
2024-05-09T02:27:32.100Z,12.30
2024-05-09T02:30:39.670Z,12.30
2024-05-09T02:33:44.190Z,12.20
2024-05-09T02:36:46.113Z,12.10
2024-05-09T02:39:47.882Z,12.10
2024-05-09T02:42:49.626Z,12.00
2024-05-09T02:45:51.394Z,12.00
2024-05-09T02:48:53.195Z,11.90
2024-05-09T02:51:55.078Z,11.90
2024-05-09T02:54:56.830Z,11.90
2024-05-09T02:57:58.641Z,11.90
2024-05-09T03:01:01.391Z,11.90
2024-05-09T03:04:03.348Z,12.00
2024-05-09T03:07:05.285Z,12.00
2024-05-09T03:10:14.874Z,12.10
2024-05-09T03:13:23.901Z,12.10
2024-05-09T03:16:25.633Z,12.10
2024-05-09T03:19:27.461Z,12.10
2024-05-09T03:22:29.332Z,12.10
2024-05-09T03:25:31.205Z,12.10
2024-05-09T03:28:33.055Z,12.00
2024-05-09T03:31:34.805Z,12.00
2024-05-09T03:34:39.152Z,11.90
2024-05-09T03:37:40.881Z,11.90
2024-05-09T03:40:47.026Z,11.80
2024-05-09T03:43:48.963Z,11.80
2024-05-09T03:46:50.957Z,11.80
2024-05-09T03:49:52.793Z,11.80
2024-05-09T03:52:54.596Z,11.80
2024-05-09T03:55:56.462Z,11.70
2024-05-09T03:58:58.272Z,11.60
2024-05-09T04:02:00.106Z,11.50
2024-05-09T04:05:01.928Z,11.40
2024-05-09T04:08:04.766Z,11.30
2024-05-09T04:11:06.961Z,11.20
2024-05-09T04:14:08.895Z,11.10
2024-05-09T04:17:10.822Z,11.10
2024-05-09T04:20:21.371Z,11.10
2024-05-09T04:23:31.308Z,11.10
2024-05-09T04:26:33.183Z,11.10
2024-05-09T04:29:35.051Z,11.10
2024-05-09T04:32:37.037Z,11.20
2024-05-09T04:35:39.163Z,11.20
2024-05-09T04:38:41.158Z,11.30
2024-05-09T04:41:42.995Z,11.30
2024-05-09T04:44:44.769Z,11.40
2024-05-09T04:47:46.944Z,11.50
2024-05-09T04:50:48.875Z,11.60
2024-05-09T04:53:50.745Z,11.70
2024-05-09T04:56:52.550Z,11.80
2024-05-09T04:59:54.296Z,11.90
2024-05-09T05:02:56.177Z,11.90
2024-05-09T05:05:58.213Z,12.00
2024-05-09T05:09:00.051Z,12.20
2024-05-09T05:12:01.984Z,12.20
2024-05-09T05:15:03.935Z,12.40
2024-05-09T05:18:06.057Z,12.40
2024-05-09T05:21:07.933Z,12.50
2024-05-09T05:24:09.708Z,12.60
2024-05-09T05:27:11.435Z,12.70
2024-05-09T05:30:21.097Z,12.80
2024-05-09T05:33:27.259Z,12.90
2024-05-09T05:36:29.107Z,13.00
2024-05-09T05:39:30.910Z,13.20
2024-05-09T05:42:33.743Z,13.30
2024-05-09T05:45:35.753Z,13.40
2024-05-09T05:48:37.565Z,13.50
2024-05-09T05:51:39.380Z,13.70
2024-05-09T05:54:41.183Z,13.80
2024-05-09T05:57:43.497Z,13.90
2024-05-09T06:00:45.343Z,14.00
2024-05-09T06:03:47.370Z,14.10
2024-05-09T06:06:49.230Z,14.10
2024-05-09T06:09:51.023Z,14.20
2024-05-09T06:12:52.783Z,14.30
2024-05-09T06:15:54.591Z,14.40
2024-05-09T06:18:56.486Z,14.50
2024-05-09T06:21:58.677Z,14.60
2024-05-09T06:25:00.842Z,14.60
2024-05-09T06:28:02.712Z,14.80
2024-05-09T06:31:04.746Z,14.90
2024-05-09T06:34:06.619Z,14.90
2024-05-09T06:37:08.445Z,14.80
2024-05-09T06:40:12.553Z,14.70
2024-05-09T06:43:18.952Z,14.80
2024-05-09T06:46:21.659Z,14.80
2024-05-09T06:49:23.540Z,14.80
2024-05-09T06:52:25.330Z,14.90
2024-05-09T06:55:27.085Z,15.00
2024-05-09T06:58:28.840Z,15.10
2024-05-09T07:01:31.418Z,15.30
2024-05-09T07:04:33.412Z,15.40
2024-05-09T07:07:35.486Z,15.50
2024-05-09T07:10:37.665Z,15.70
2024-05-09T07:13:39.675Z,15.80
2024-05-09T07:16:41.449Z,15.90
2024-05-09T07:19:43.285Z,15.90
2024-05-09T07:22:45.343Z,16.10
2024-05-09T07:25:47.383Z,16.20
2024-05-09T07:28:49.356Z,16.40
2024-05-09T07:31:51.443Z,16.60
2024-05-09T07:34:53.318Z,16.60
2024-05-09T07:37:55.131Z,16.60
2024-05-09T07:40:56.983Z,16.80
2024-05-09T07:43:58.799Z,16.90
2024-05-09T07:52:22.673Z,17.50
2024-05-09T07:53:39.971Z,17.50
2024-05-09T07:56:46.381Z,17.60
2024-05-09T07:59:48.303Z,17.80
2024-05-09T08:02:50.068Z,17.60
2024-05-09T08:05:52.065Z,17.80
2024-05-09T08:08:54.099Z,17.60
2024-05-09T08:11:55.968Z,17.80
2024-05-09T08:14:57.811Z,17.80
2024-05-09T08:17:59.778Z,17.70
2024-05-09T08:21:01.665Z,17.80
2024-05-09T08:24:03.603Z,18.10
2024-05-09T08:27:05.629Z,18.40
2024-05-09T08:30:10.244Z,18.50
2024-05-09T08:33:14.525Z,18.60
2024-05-09T08:36:16.392Z,18.60
2024-05-09T08:39:18.472Z,18.50
2024-05-09T08:42:22.963Z,18.60
2024-05-09T08:45:25.501Z,18.80
2024-05-09T08:48:27.664Z,18.80
2024-05-09T08:51:29.829Z,18.90
2024-05-09T08:54:31.806Z,19.10
2024-05-09T08:57:36.096Z,19.10
2024-05-09T09:00:39.268Z,19.10
2024-05-09T09:03:42.250Z,19.40
2024-05-09T09:06:44.544Z,19.60
2024-05-09T09:09:47.915Z,19.30
2024-05-09T09:12:56.379Z,19.20
2024-05-09T09:15:58.662Z,19.50
2024-05-09T09:19:01.045Z,19.80
2024-05-09T09:22:04.038Z,20.00
2024-05-09T09:25:06.046Z,20.00
2024-05-09T09:28:08.609Z,19.50
2024-05-09T09:31:10.816Z,19.90
2024-05-09T09:34:12.872Z,20.30
2024-05-09T09:37:20.792Z,20.50
2024-05-09T09:40:32.102Z,20.40
2024-05-09T09:43:36.646Z,20.70
2024-05-09T09:46:39.612Z,20.50
2024-05-09T09:49:43.019Z,20.80
2024-05-09T09:52:45.635Z,20.90
2024-05-09T09:55:48.468Z,21.00
2024-05-09T09:58:52.892Z,21.00
2024-05-09T10:01:55.006Z,20.70
2024-05-09T10:04:57.065Z,20.40
2024-05-09T10:08:02.923Z,21.00
2024-05-09T10:11:04.974Z,21.60
2024-05-09T10:14:07.194Z,21.80
2024-05-09T10:17:09.209Z,21.70
2024-05-09T10:20:18.461Z,22.00
2024-05-09T10:23:31.954Z,22.00
2024-05-09T10:26:38.128Z,21.80
2024-05-09T10:29:50.756Z,21.90
2024-05-09T10:32:52.627Z,21.90
2024-05-09T10:35:54.520Z,22.50
2024-05-09T10:38:56.336Z,23.20
2024-05-09T10:41:58.099Z,23.80
2024-05-09T10:45:00.114Z,24.40
2024-05-09T10:48:02.374Z,24.80
2024-05-09T10:51:04.974Z,25.00
2024-05-09T10:54:06.730Z,23.80
2024-05-09T10:57:08.515Z,23.20
2024-05-09T11:00:18.983Z,23.50
2024-05-09T11:03:25.871Z,24.80
2024-05-09T11:06:28.638Z,25.90
2024-05-09T11:09:32.348Z,26.90
2024-05-09T11:12:34.963Z,27.40
2024-05-09T11:15:45.606Z,27.30
2024-05-09T11:18:55.016Z,26.70
2024-05-09T11:21:57.831Z,26.60
2024-05-09T11:24:59.820Z,26.40
2024-05-09T11:28:02.462Z,25.60
2024-05-09T11:31:09.346Z,25.30
2024-05-09T11:34:11.976Z,25.20
2024-05-09T11:37:14.074Z,25.00
2024-05-09T11:40:21.532Z,24.20
2024-05-09T11:43:27.472Z,24.70
2024-05-09T11:46:29.417Z,24.30
2024-05-09T11:49:31.336Z,24.40
2024-05-09T11:52:33.164Z,25.30
2024-05-09T11:55:34.980Z,24.60
2024-05-09T11:58:36.835Z,25.00
2024-05-09T12:01:38.776Z,24.50
2024-05-09T12:04:40.722Z,24.60
2024-05-09T12:07:42.569Z,24.50
2024-05-09T12:10:44.538Z,24.20
2024-05-09T12:13:46.405Z,23.80
2024-05-09T12:16:48.283Z,23.60
2024-05-09T12:19:50.109Z,23.50
2024-05-09T12:22:51.899Z,23.50
2024-05-09T12:25:53.962Z,23.50
2024-05-09T12:28:55.777Z,25.70
2024-05-09T12:31:57.774Z,27.80
2024-05-09T12:34:59.536Z,28.90
2024-05-09T12:38:01.311Z,30.30
2024-05-09T12:41:03.152Z,29.00
2024-05-09T12:44:05.043Z,27.30
2024-05-09T12:47:06.874Z,26.70
2024-05-09T12:50:18.597Z,25.90
2024-05-09T12:53:26.371Z,25.60
2024-05-09T12:56:28.258Z,27.10
2024-05-09T12:59:30.119Z,28.30
2024-05-09T13:02:31.979Z,29.10
2024-05-09T13:05:34.028Z,27.80
2024-05-09T13:08:35.994Z,27.50
2024-05-09T13:11:37.967Z,26.90
2024-05-09T13:14:39.774Z,25.80
2024-05-09T13:17:41.676Z,24.70
2024-05-09T13:20:44.116Z,24.10
2024-05-09T13:23:45.858Z,24.70
2024-05-09T13:26:47.666Z,25.10
2024-05-09T13:29:49.421Z,27.80
2024-05-09T13:32:51.333Z,30.50
2024-05-09T13:35:53.259Z,33.10
2024-05-09T13:38:55.121Z,32.10
2024-05-09T13:41:56.889Z,32.50
2024-05-09T13:44:58.881Z,33.50
2024-05-09T13:48:01.284Z,33.80
2024-05-09T13:51:03.245Z,33.70
2024-05-09T13:54:04.995Z,32.60
2024-05-09T13:57:06.851Z,31.80
2024-05-09T14:00:22.267Z,29.90
2024-05-09T14:03:30.712Z,27.50
2024-05-09T14:06:32.716Z,28.30
2024-05-09T14:09:34.542Z,27.70
2024-05-09T14:12:36.355Z,27.30
2024-05-09T14:15:38.260Z,26.30
2024-05-09T14:18:40.158Z,25.40
2024-05-09T14:21:42.029Z,24.60
2024-05-09T14:24:43.891Z,24.20
2024-05-09T14:27:45.754Z,25.00
2024-05-09T14:30:47.632Z,25.10
2024-05-09T14:33:49.645Z,24.60
2024-05-09T14:36:51.549Z,24.00
2024-05-09T14:39:53.547Z,23.70
2024-05-09T14:42:55.439Z,24.00
2024-05-09T14:45:57.265Z,23.90
2024-05-09T14:48:59.233Z,24.20
2024-05-09T14:52:01.162Z,24.30
2024-05-09T14:55:02.998Z,24.00
2024-05-09T14:58:08.801Z,24.10
2024-05-09T15:01:10.852Z,23.50
2024-05-09T15:04:12.751Z,23.80
2024-05-09T15:07:14.782Z,23.60
2024-05-09T15:10:23.947Z,23.50
2024-05-09T15:13:33.421Z,23.40
2024-05-09T15:16:35.362Z,23.10
2024-05-09T15:19:37.466Z,22.90
2024-05-09T15:22:39.366Z,22.90
2024-05-09T15:25:41.250Z,23.30
2024-05-09T15:28:43.055Z,24.00
2024-05-09T15:31:44.846Z,24.50
2024-05-09T15:34:46.691Z,24.10
2024-05-09T15:37:48.588Z,23.80
2024-05-09T15:40:50.564Z,23.90
2024-05-09T15:43:52.358Z,24.10
2024-05-09T15:46:54.125Z,23.80
2024-05-09T15:49:56.031Z,23.60
2024-05-09T15:52:57.827Z,23.40
2024-05-09T15:55:59.648Z,23.60
2024-05-09T15:59:01.579Z,24.00
2024-05-09T16:02:03.662Z,24.10
2024-05-09T16:05:06.479Z,23.80
2024-05-09T16:08:09.079Z,24.10
2024-05-09T16:11:11.228Z,23.70
2024-05-09T16:14:13.054Z,23.50
2024-05-09T16:17:15.069Z,23.40
2024-05-09T16:20:26.407Z,23.70
2024-05-09T16:23:36.741Z,23.90
2024-05-09T16:26:38.738Z,24.20
2024-05-09T16:29:40.502Z,24.00
2024-05-09T16:32:42.408Z,23.60
2024-05-09T16:35:44.612Z,23.30
2024-05-09T16:38:46.459Z,22.90
2024-05-09T16:41:48.250Z,22.70
2024-05-09T16:44:50.021Z,22.50
2024-05-09T16:47:51.903Z,22.50
2024-05-09T16:50:53.700Z,22.40
2024-05-09T16:53:55.440Z,22.40
2024-05-09T16:56:57.296Z,22.20
2024-05-09T16:59:59.141Z,22.00
2024-05-09T17:03:01.035Z,21.70
2024-05-09T17:06:02.970Z,21.50
2024-05-09T17:09:08.277Z,21.20
2024-05-09T17:12:13.414Z,20.90
2024-05-09T17:15:15.172Z,20.70
2024-05-09T17:18:17.152Z,20.70
2024-05-09T17:21:19.082Z,20.60
2024-05-09T17:24:20.890Z,20.50
2024-05-09T17:27:22.671Z,20.40
2024-05-09T17:30:32.029Z,20.40
2024-05-09T17:33:37.823Z,20.30
2024-05-09T17:36:39.755Z,20.30
2024-05-09T17:39:41.595Z,20.10
2024-05-09T17:42:43.426Z,20.00
2024-05-09T17:45:45.395Z,20.00
2024-05-09T17:48:47.301Z,20.00
2024-05-09T17:51:53.379Z,19.90
2024-05-09T17:54:55.283Z,19.80
2024-05-09T17:57:57.267Z,19.70
2024-05-09T18:00:59.354Z,19.60
2024-05-09T18:04:01.322Z,19.40
2024-05-09T18:07:03.415Z,19.20
2024-05-09T18:10:10.217Z,19.10
2024-05-09T18:13:17.618Z,18.90
2024-05-09T18:16:20.322Z,18.70
2024-05-09T18:19:22.248Z,18.50
2024-05-09T18:22:24.191Z,18.30
2024-05-09T18:25:26.044Z,18.10
2024-05-09T18:28:28.084Z,17.90
2024-05-09T18:31:30.188Z,17.70
2024-05-09T18:34:32.129Z,17.60
2024-05-09T18:37:34.029Z,17.50
2024-05-09T18:40:38.059Z,17.30
2024-05-09T18:43:45.109Z,17.20
2024-05-09T18:46:50.231Z,17.00
2024-05-09T18:49:52.084Z,16.80
2024-05-09T18:52:53.888Z,16.70
2024-05-09T18:55:55.797Z,16.60
2024-05-09T18:58:57.743Z,16.50
2024-05-09T19:01:59.578Z,16.40
2024-05-09T19:05:01.467Z,16.30
2024-05-09T19:08:03.679Z,16.10
2024-05-09T19:11:05.567Z,16.00
2024-05-09T19:14:07.467Z,16.00
2024-05-09T19:17:09.379Z,15.80
2024-05-09T19:20:20.606Z,15.70
2024-05-09T19:23:32.529Z,15.60
2024-05-09T19:26:34.729Z,15.60
2024-05-09T19:29:36.478Z,15.50
2024-05-09T19:32:38.629Z,15.40
2024-05-09T19:35:40.806Z,15.40
2024-05-09T19:38:42.622Z,15.30
2024-05-09T19:41:44.383Z,15.20
2024-05-09T19:44:46.171Z,15.10
2024-05-09T19:47:48.146Z,15.00
2024-05-09T19:50:52.897Z,14.90
2024-05-09T19:53:54.969Z,14.90
2024-05-09T19:56:56.881Z,14.70
2024-05-09T19:59:58.914Z,14.60
2024-05-09T20:03:00.830Z,14.60
2024-05-09T20:06:03.062Z,14.50
2024-05-09T20:09:04.949Z,14.40
2024-05-09T20:12:06.813Z,14.30
2024-05-09T20:15:08.983Z,14.30
2024-05-09T20:18:11.142Z,14.20
2024-05-09T20:21:13.097Z,14.10
2024-05-09T20:24:14.919Z,14.00
2024-05-09T20:27:16.658Z,13.90
2024-05-09T20:30:25.457Z,13.80
2024-05-09T20:33:33.438Z,13.70
2024-05-09T20:36:35.325Z,13.50
2024-05-09T20:39:37.121Z,13.40
2024-05-09T20:42:38.959Z,13.30
2024-05-09T20:45:41.112Z,13.20
2024-05-09T20:48:43.200Z,13.10
2024-05-09T20:51:45.106Z,13.10
2024-05-09T20:54:46.877Z,13.00
2024-05-09T20:57:48.686Z,12.90
2024-05-09T21:00:50.568Z,12.80
2024-05-09T21:03:52.473Z,12.70
2024-05-09T21:06:54.329Z,12.60
2024-05-09T21:09:56.296Z,12.50
2024-05-09T21:12:59.087Z,12.40
2024-05-09T21:16:00.951Z,12.30
2024-05-09T21:19:02.774Z,12.30
2024-05-09T21:22:04.762Z,12.20
2024-05-09T21:25:06.738Z,12.10
2024-05-09T21:28:08.623Z,12.00
2024-05-09T21:31:10.482Z,11.90
2024-05-09T21:34:12.392Z,11.90
2024-05-09T21:37:14.368Z,11.80
2024-05-09T21:40:26.641Z,11.70
2024-05-09T21:43:34.858Z,11.60
2024-05-09T21:46:36.714Z,11.60
2024-05-09T21:49:38.582Z,11.50
2024-05-09T21:52:40.844Z,11.40
2024-05-09T21:55:43.078Z,11.40
2024-05-09T21:58:44.945Z,11.30
2024-05-09T22:01:47.028Z,11.30
2024-05-09T22:04:49.074Z,11.20
2024-05-09T22:07:50.969Z,11.20
2024-05-09T22:10:53.081Z,11.20
2024-05-09T22:13:54.941Z,11.10
2024-05-09T22:16:56.758Z,11.10
2024-05-09T22:19:58.533Z,11.00
2024-05-09T22:23:00.350Z,11.00
2024-05-09T22:26:02.142Z,11.00
2024-05-09T22:29:04.839Z,10.90
2024-05-09T22:32:06.944Z,10.80
2024-05-09T22:35:08.747Z,10.70
2024-05-09T22:38:10.523Z,10.60
2024-05-09T22:41:12.363Z,10.50
2024-05-09T22:44:14.205Z,10.50
2024-05-09T22:47:15.978Z,10.40
2024-05-09T22:50:26.296Z,10.30
2024-05-09T22:53:29.015Z,10.20
2024-05-09T22:56:30.842Z,10.20
2024-05-09T22:59:32.585Z,10.20
2024-05-09T23:02:35.278Z,10.20
2024-05-09T23:05:37.159Z,10.10
2024-05-09T23:08:39.062Z,10.20
2024-05-09T23:11:41.555Z,10.20
2024-05-09T23:14:46.983Z,10.20
2024-05-09T23:17:48.910Z,10.20
2024-05-09T23:20:50.805Z,10.10
2024-05-09T23:23:52.592Z,10.00
2024-05-09T23:26:54.343Z,9.90
2024-05-09T23:29:56.121Z,9.80
2024-05-09T23:32:57.956Z,9.70
2024-05-09T23:35:59.716Z,9.70
2024-05-09T23:39:01.490Z,9.50
2024-05-09T23:42:04.139Z,9.50
2024-05-09T23:45:06.582Z,9.40
2024-05-09T23:48:09.046Z,9.30
2024-05-09T23:51:11.052Z,9.30
2024-05-09T23:54:12.830Z,9.30
2024-05-09T23:57:14.584Z,9.20
